createdAt,value
2022-10-21T00:01:51.396Z,100.00
2022-10-21T00:06:53.094Z,100.00
2022-10-21T00:11:54.777Z,100.00
2022-10-21T00:16:56.451Z,100.00
2022-10-21T00:21:58.116Z,100.00
2022-10-21T00:26:59.788Z,100.00
2022-10-21T00:32:01.502Z,100.00
2022-10-21T00:37:03.291Z,100.00
2022-10-21T00:42:17.791Z,100.00
2022-10-21T00:47:22.681Z,100.00
2022-10-21T00:52:24.958Z,100.00
2022-10-21T00:57:28.363Z,100.00
2022-10-21T01:02:30.428Z,100.00
2022-10-21T01:07:35.344Z,100.00
2022-10-21T01:12:43.232Z,100.00
2022-10-21T01:18:15.733Z,100.00
2022-10-21T01:23:54.461Z,100.00
2022-10-21T01:29:15.241Z,100.00
2022-10-21T01:34:41.674Z,100.00
2022-10-21T01:39:50.966Z,100.00
2022-10-21T01:45:00.784Z,100.00
2022-10-21T01:50:08.375Z,100.00
2022-10-21T01:55:15.685Z,100.00
2022-10-21T02:00:17.645Z,100.00
2022-10-21T02:05:30.437Z,100.00
2022-10-21T02:10:37.045Z,100.00
2022-10-21T02:15:40.964Z,99.75
2022-10-21T02:20:50.640Z,100.00
2022-10-21T02:25:52.703Z,99.88
2022-10-21T02:30:59.783Z,99.06
2022-10-21T02:36:13.134Z,97.81
2022-10-21T02:41:22.026Z,98.68
2022-10-21T02:46:25.071Z,96.45
2022-10-21T02:51:26.748Z,100.00
2022-10-21T03:01:35.048Z,98.62
2022-10-21T03:06:36.712Z,97.08
2022-10-21T03:11:38.367Z,100.00
2022-10-21T03:16:40.066Z,99.90
2022-10-21T03:21:41.770Z,100.00
2022-10-21T03:26:43.437Z,100.00
2022-10-21T03:31:45.105Z,100.00
2022-10-21T03:36:46.824Z,100.00
2022-10-21T03:41:48.487Z,100.00
2022-10-21T03:46:50.144Z,100.00
2022-10-21T03:51:51.821Z,100.00
2022-10-21T03:56:53.496Z,100.00
2022-10-21T04:01:55.225Z,100.00
2022-10-21T04:06:56.938Z,100.00
2022-10-21T04:11:58.615Z,100.00
2022-10-21T04:17:06.750Z,100.00
2022-10-21T04:22:09.776Z,100.00
2022-10-21T04:27:11.446Z,100.00
2022-10-21T04:32:13.105Z,100.00
2022-10-21T04:37:14.781Z,100.00
2022-10-21T04:42:16.543Z,100.00
2022-10-21T04:47:18.295Z,100.00
2022-10-21T04:52:19.970Z,100.00
2022-10-21T04:57:21.642Z,100.00
2022-10-21T05:02:25.638Z,100.00
2022-10-21T05:07:27.790Z,100.00
2022-10-21T05:12:29.529Z,100.00
2022-10-21T05:17:31.225Z,100.00
2022-10-21T05:22:33.073Z,100.00
2022-10-21T05:27:34.739Z,100.00
2022-10-21T05:32:36.752Z,100.00
2022-10-21T05:37:38.841Z,100.00
2022-10-21T05:42:40.717Z,100.00
2022-10-21T05:47:43.111Z,100.00
2022-10-21T05:52:44.879Z,100.00
2022-10-21T05:57:46.850Z,100.00
2022-10-21T06:02:48.535Z,100.00
2022-10-21T06:07:50.229Z,100.00
2022-10-21T06:12:51.939Z,100.00
2022-10-21T06:17:53.662Z,100.00
2022-10-21T06:22:55.327Z,100.00
2022-10-21T06:27:57.021Z,100.00
2022-10-21T06:32:58.677Z,100.00
2022-10-21T06:38:00.321Z,100.00
2022-10-21T06:43:02.786Z,100.00
2022-10-21T06:48:04.681Z,100.00
2022-10-21T06:53:06.429Z,100.00
2022-10-21T06:58:08.105Z,98.14
2022-10-21T07:03:09.775Z,97.70
2022-10-21T07:08:12.753Z,95.14
2022-10-21T07:13:14.670Z,92.82
2022-10-21T07:18:16.332Z,90.87
2022-10-21T07:23:18.211Z,90.36
2022-10-21T07:28:19.895Z,86.25
2022-10-21T07:33:21.628Z,86.13
2022-10-21T07:38:23.370Z,90.16
2022-10-21T07:43:25.470Z,87.85
2022-10-21T07:48:28.566Z,82.63
2022-10-21T07:53:30.321Z,84.73
2022-10-21T07:58:32.168Z,84.88
2022-10-21T08:03:34.123Z,88.26
2022-10-21T08:08:36.620Z,83.42
2022-10-21T08:13:41.525Z,84.24
2022-10-21T08:18:43.245Z,81.14
2022-10-21T08:23:45.494Z,81.27
2022-10-21T08:28:47.271Z,81.86
2022-10-21T08:33:49.763Z,77.81
2022-10-21T08:38:52.342Z,76.27
2022-10-21T08:43:59.023Z,75.27
2022-10-21T08:49:10.626Z,70.52
2022-10-21T08:54:31.497Z,68.26
2022-10-21T08:59:33.381Z,64.67
2022-10-21T09:04:45.471Z,61.69
2022-10-21T09:10:00.692Z,62.21
2022-10-21T09:15:14.210Z,62.99
2022-10-21T09:20:40.397Z,68.13
2022-10-21T09:26:06.857Z,72.10
2022-10-21T09:31:21.677Z,72.43
2022-10-21T09:36:38.782Z,71.05
2022-10-21T09:41:48.116Z,70.98
2022-10-21T09:46:51.977Z,71.99
2022-10-21T09:51:54.276Z,70.51
2022-10-21T09:57:04.481Z,69.35
2022-10-21T10:02:08.384Z,66.07
2022-10-21T10:07:32.514Z,67.08
2022-10-21T10:12:34.167Z,61.14
2022-10-21T10:17:38.673Z,62.27
2022-10-21T10:23:08.377Z,65.82
2022-10-21T10:28:10.014Z,67.93
2022-10-21T10:33:23.192Z,68.34
2022-10-21T10:38:54.735Z,67.27
2022-10-21T10:43:57.775Z,67.54
2022-10-21T10:49:17.436Z,65.20
2022-10-21T10:54:29.580Z,63.74
2022-10-21T10:59:41.118Z,62.19
2022-10-21T11:05:06.988Z,61.61
2022-10-21T11:10:46.333Z,62.94
2022-10-21T11:16:24.724Z,67.63
2022-10-21T11:21:44.626Z,68.96
2022-10-21T11:26:52.285Z,69.70
2022-10-21T11:32:16.286Z,69.75
2022-10-21T11:37:23.681Z,70.97
2022-10-21T11:42:41.609Z,71.00
2022-10-21T11:47:54.931Z,71.22
2022-10-21T11:53:19.730Z,69.27
2022-10-21T11:58:46.329Z,69.38
2022-10-21T12:03:58.927Z,70.58
2022-10-21T12:09:06.318Z,73.09
2022-10-21T12:14:31.582Z,74.70
2022-10-21T12:19:36.015Z,75.03
2022-10-21T12:24:51.073Z,75.45
2022-10-21T12:30:24.821Z,76.14
2022-10-21T12:35:47.303Z,77.74
2022-10-21T12:40:51.005Z,81.90
2022-10-21T12:46:11.139Z,84.51
2022-10-21T12:51:39.310Z,88.68
2022-10-21T12:56:48.354Z,91.23
2022-10-21T13:02:05.054Z,95.95
2022-10-21T13:07:15.736Z,100.00
2022-10-21T13:12:23.308Z,100.00
2022-10-21T13:17:29.601Z,100.00
2022-10-21T13:22:34.542Z,100.00
2022-10-21T13:27:38.726Z,100.00
2022-10-21T13:32:41.822Z,100.00
2022-10-21T13:37:54.143Z,100.00
2022-10-21T13:43:00.011Z,100.00
2022-10-21T13:48:13.721Z,100.00
2022-10-21T13:53:18.460Z,100.00
2022-10-21T13:58:24.025Z,100.00
2022-10-21T14:03:26.527Z,100.00
2022-10-21T14:08:28.412Z,100.00
2022-10-21T14:13:35.891Z,100.00
2022-10-21T14:18:41.595Z,100.00
2022-10-21T14:23:45.676Z,100.00
2022-10-21T14:28:50.056Z,100.00
2022-10-21T14:33:51.802Z,100.00
2022-10-21T14:39:03.206Z,100.00
2022-10-21T14:44:14.789Z,100.00
2022-10-21T14:49:23.839Z,100.00
2022-10-21T14:54:38.325Z,100.00
2022-10-21T14:59:42.993Z,100.00
2022-10-21T15:04:59.060Z,100.00
2022-10-21T15:10:03.835Z,100.00
2022-10-21T15:15:40.799Z,100.00
2022-10-21T15:20:50.435Z,100.00
2022-10-21T15:25:56.020Z,100.00
2022-10-21T15:30:59.630Z,100.00
2022-10-21T15:36:02.694Z,100.00
2022-10-21T15:41:04.849Z,100.00
2022-10-21T15:46:06.582Z,100.00
2022-10-21T15:51:08.335Z,100.00
2022-10-21T15:56:14.833Z,100.00
2022-10-21T16:01:17.485Z,100.00
2022-10-21T16:06:21.157Z,100.00
2022-10-21T16:11:34.650Z,100.00
2022-10-21T16:16:48.544Z,100.00
2022-10-21T16:21:50.228Z,100.00
2022-10-21T16:26:52.056Z,100.00
2022-10-21T16:31:53.890Z,100.00
2022-10-21T16:36:55.859Z,100.00
2022-10-21T16:41:57.537Z,100.00
2022-10-21T16:46:59.245Z,100.00
2022-10-21T16:52:02.239Z,100.00
2022-10-21T16:57:07.020Z,100.00
2022-10-21T17:02:26.795Z,100.00
2022-10-21T17:07:30.625Z,100.00
2022-10-21T17:12:33.575Z,100.00
2022-10-21T17:17:36.697Z,100.00
2022-10-21T17:22:38.506Z,100.00
2022-10-21T17:27:40.582Z,100.00
2022-10-21T17:37:50.242Z,100.00
2022-10-21T17:42:52.664Z,100.00
2022-10-21T17:47:54.410Z,100.00
2022-10-21T17:52:56.120Z,100.00
2022-10-21T17:57:57.792Z,100.00
2022-10-21T18:02:59.448Z,100.00
2022-10-21T18:08:01.109Z,100.00
2022-10-21T18:13:02.845Z,100.00
2022-10-21T18:18:04.508Z,100.00
2022-10-21T18:23:06.184Z,100.00
2022-10-21T18:28:08.466Z,100.00
2022-10-21T18:33:10.569Z,100.00
2022-10-21T18:38:12.603Z,100.00
2022-10-21T18:43:15.011Z,100.00
2022-10-21T18:48:16.695Z,100.00
2022-10-21T18:53:18.574Z,100.00
2022-10-21T18:58:20.240Z,100.00
2022-10-21T19:03:22.561Z,100.00
2022-10-21T19:08:24.326Z,100.00
2022-10-21T19:18:28.598Z,100.00
2022-10-21T19:23:32.488Z,100.00
2022-10-21T19:28:35.381Z,100.00
2022-10-21T19:33:37.614Z,100.00
2022-10-21T19:38:44.445Z,100.00
2022-10-21T19:43:47.503Z,100.00
2022-10-21T19:48:49.796Z,100.00
2022-10-21T19:53:52.135Z,100.00
2022-10-21T19:58:53.830Z,100.00
2022-10-21T20:03:56.161Z,100.00
2022-10-21T20:09:00.718Z,100.00
2022-10-21T20:14:03.013Z,100.00
2022-10-21T20:19:06.764Z,100.00
2022-10-21T20:24:09.835Z,100.00
2022-10-21T20:29:13.314Z,100.00
2022-10-21T20:34:15.402Z,100.00
2022-10-21T20:39:17.570Z,100.00
2022-10-21T20:44:19.440Z,100.00
2022-10-21T20:49:21.097Z,100.00
2022-10-21T20:54:22.866Z,100.00
2022-10-21T20:59:24.929Z,100.00
2022-10-21T21:04:26.911Z,100.00
2022-10-21T21:09:44.043Z,99.90
2022-10-21T21:14:50.212Z,99.70
2022-10-21T21:19:51.982Z,100.00
2022-10-21T21:24:53.641Z,100.00
2022-10-21T21:29:55.354Z,100.00
2022-10-21T21:34:57.066Z,100.00
2022-10-21T21:39:58.721Z,100.00
2022-10-21T21:45:00.390Z,100.00
2022-10-21T21:50:02.101Z,100.00
2022-10-21T21:55:03.959Z,100.00
2022-10-21T22:00:07.501Z,100.00
2022-10-21T22:05:09.295Z,100.00
2022-10-21T22:10:11.138Z,100.00
2022-10-21T22:15:19.830Z,98.30
2022-10-21T22:20:35.045Z,98.58
2022-10-21T22:25:36.706Z,98.68
2022-10-21T22:30:38.355Z,99.72
2022-10-21T22:35:40.022Z,100.00
2022-10-21T22:40:41.725Z,100.00
2022-10-21T22:45:47.344Z,100.00
2022-10-21T22:50:49.673Z,100.00
2022-10-21T22:55:51.331Z,100.00
2022-10-21T23:00:53.003Z,100.00
2022-10-21T23:05:54.674Z,100.00
2022-10-21T23:10:56.898Z,100.00
2022-10-21T23:15:58.559Z,100.00
2022-10-21T23:21:00.252Z,100.00
2022-10-21T23:26:03.069Z,100.00
2022-10-21T23:31:04.936Z,100.00
2022-10-21T23:36:07.033Z,100.00
2022-10-21T23:41:08.719Z,100.00
2022-10-21T23:46:10.548Z,100.00
2022-10-21T23:51:12.275Z,100.00
2022-10-21T23:56:14.120Z,100.00
